Aérodrome :
LOGIN :

S'inscrire | Disclaimer

   EN    FR    IT 

 










Légende :    VFR   VFR Marginal   IFR   IFR Intensif   IFR Très Intensif
Visi : 
Plafond : 
>= 8 km
>= 3000ft
5 à 8 km
1000 à 3000 ft
1500m à 5 km
500 à 1000 ft
800 à 1500m
200 à 500 ft
< 800m
< 200 ft
Symboles :   Orages  Brouillard  Fortes neiges  Fortes précipitations  Vent > 20 kt
SIGMETs :   Divers  Orages  Givrage  Turbulence  Onde Orograph.  Cendres Volcan.






- Altitude de l'aérodrome : 87 ft
- Code IATA : FSC


LFKF - Figari

DERNIER METAR :
  • 140030Z AUTO 25006KT CAVOK 09/06 Q1006

METARs EXPIRÉS :
  • 140000Z AUTO 24006KT CAVOK 10/06 Q1006
  • 132330Z AUTO 26007KT CAVOK 10/06 Q1006
  • 132300Z AUTO 24006KT CAVOK 10/06 Q1006
  • 132230Z AUTO 24007KT CAVOK 10/06 Q1006
  • 132200Z AUTO 24006KT CAVOK 11/05 Q1006

TAF TAF LFKF
Valide du 13 à 15h jusqu'au 14 à 15h UTC


131400Z 1315/1415 28015KT CAVOK
PROB40
TEMPO 1315/1317 27015G25KT
BECMG 1317/1318 28010KT



MET'MAP, la Météo Aéronautique d'un coup d'oeil ! - Copyright ORBIFLY Décembre 2007 - Disclaimer

ORBIFLY MET'MAP TEAM :

Programmation & Développement : Alexandra Zaïnal
Conception & Développement : Baudouin d'Aumeries
Co-Programmation & Développement : Marc-Olivier Méhu
Soutien technique & logistique : Manuel Goepfert

Contact : metmap@orbifly.com




SOURCES & CREDITS :

   NOAA